sensor_id;sensor_type;location;lat;lon;timestamp;pressure;altitude;pressure_sealevel;temperature;humidity
61488;BME280;47351;53.326;-6.298;2022-11-25T00:01:18;99461.70;;;6.41;87.84
61488;BME280;47351;53.326;-6.298;2022-11-25T00:04:10;99466.39;;;6.44;87.90
61488;BME280;47351;53.326;-6.298;2022-11-25T00:07:02;99468.46;;;6.44;87.71
61488;BME280;47351;53.326;-6.298;2022-11-25T00:09:55;99474.08;;;6.43;87.67
61488;BME280;47351;53.326;-6.298;2022-11-25T00:12:47;99481.38;;;6.43;87.68
61488;BME280;47351;53.326;-6.298;2022-11-25T00:15:42;99487.92;;;6.45;87.67
61488;BME280;47351;53.326;-6.298;2022-11-25T00:18:34;99492.33;;;6.47;87.58
61488;BME280;47351;53.326;-6.298;2022-11-25T00:21:30;99501.77;;;6.51;87.44
61488;BME280;47351;53.326;-6.298;2022-11-25T00:24:22;99508.95;;;6.59;87.24
61488;BME280;47351;53.326;-6.298;2022-11-25T00:27:14;99513.84;;;6.66;86.81
61488;BME280;47351;53.326;-6.298;2022-11-25T00:30:09;99524.90;;;6.71;86.48
61488;BME280;47351;53.326;-6.298;2022-11-25T00:33:01;99532.42;;;6.73;86.20
61488;BME280;47351;53.326;-6.298;2022-11-25T00:35:53;99540.33;;;6.74;85.84
61488;BME280;47351;53.326;-6.298;2022-11-25T00:38:46;99552.14;;;6.75;85.58
61488;BME280;47351;53.326;-6.298;2022-11-25T00:41:38;99558.96;;;6.76;85.46
61488;BME280;47351;53.326;-6.298;2022-11-25T00:44:48;99567.17;;;6.75;85.22
61488;BME280;47351;53.326;-6.298;2022-11-25T00:47:40;99577.52;;;6.74;85.10
61488;BME280;47351;53.326;-6.298;2022-11-25T00:50:32;99585.04;;;6.74;85.02
61488;BME280;47351;53.326;-6.298;2022-11-25T00:53:24;99589.73;;;6.71;84.83
61488;BME280;47351;53.326;-6.298;2022-11-25T00:56:17;99594.77;;;6.67;84.79
61488;BME280;47351;53.326;-6.298;2022-11-25T00:59:09;99602.38;;;6.63;84.82
61488;BME280;47351;53.326;-6.298;2022-11-25T01:02:01;99611.35;;;6.58;84.95
61488;BME280;47351;53.326;-6.298;2022-11-25T01:04:53;99621.34;;;6.56;85.08
61488;BME280;47351;53.326;-6.298;2022-11-25T01:07:46;99632.38;;;6.54;85.26
61488;BME280;47351;53.326;-6.298;2022-11-25T01:10:38;99637.86;;;6.54;85.29
61488;BME280;47351;53.326;-6.298;2022-11-25T01:13:30;99645.06;;;6.55;85.31
61488;BME280;47351;53.326;-6.298;2022-11-25T01:16:23;99651.15;;;6.56;85.14
61488;BME280;47351;53.326;-6.298;2022-11-25T01:19:16;99660.52;;;6.54;85.06
61488;BME280;47351;53.326;-6.298;2022-11-25T01:22:09;99667.15;;;6.55;85.14
61488;BME280;47351;53.326;-6.298;2022-11-25T01:25:01;99674.96;;;6.58;85.18
61488;BME280;47351;53.326;-6.298;2022-11-25T01:27:53;99678.64;;;6.61;85.14
61488;BME280;47351;53.326;-6.298;2022-11-25T01:30:45;99688.12;;;6.61;85.02
61488;BME280;47351;53.326;-6.298;2022-11-25T01:33:38;99694.08;;;6.62;85.12
61488;BME280;47351;53.326;-6.298;2022-11-25T01:36:30;99702.70;;;6.64;85.15
61488;BME280;47351;53.326;-6.298;2022-11-25T01:39:23;99715.17;;;6.67;85.17
61488;BME280;47351;53.326;-6.298;2022-11-25T01:42:25;99724.84;;;6.70;85.00
61488;BME280;47351;53.326;-6.298;2022-11-25T01:45:35;99727.65;;;6.72;84.80
61488;BME280;47351;53.326;-6.298;2022-11-25T01:48:31;99730.77;;;6.72;84.58
61488;BME280;47351;53.326;-6.298;2022-11-25T01:51:32;99736.85;;;6.70;84.43
61488;BME280;47351;53.326;-6.298;2022-11-25T01:54:30;99739.70;;;6.68;84.38
61488;BME280;47351;53.326;-6.298;2022-11-25T01:57:28;99749.42;;;6.67;84.32
61488;BME280;47351;53.326;-6.298;2022-11-25T02:00:22;99753.52;;;6.65;84.23
61488;BME280;47351;53.326;-6.298;2022-11-25T02:03:15;99760.56;;;6.62;84.21
61488;BME280;47351;53.326;-6.298;2022-11-25T02:06:12;99766.83;;;6.62;84.26
61488;BME280;47351;53.326;-6.298;2022-11-25T02:09:08;99772.14;;;6.60;84.23
61488;BME280;47351;53.326;-6.298;2022-11-25T02:12:01;99773.39;;;6.58;84.21
61488;BME280;47351;53.326;-6.298;2022-11-25T02:14:54;99782.94;;;6.57;84.07
61488;BME280;47351;53.326;-6.298;2022-11-25T02:17:47;99786.02;;;6.56;83.98
61488;BME280;47351;53.326;-6.298;2022-11-25T02:20:40;99798.52;;;6.57;84.00
61488;BME280;47351;53.326;-6.298;2022-11-25T02:23:39;99805.39;;;6.59;83.92
61488;BME280;47351;53.326;-6.298;2022-11-25T02:26:35;99813.49;;;6.59;83.80
61488;BME280;47351;53.326;-6.298;2022-11-25T02:29:29;99823.18;;;6.62;83.74
61488;BME280;47351;53.326;-6.298;2022-11-25T02:32:23;99829.06;;;6.63;83.69
61488;BME280;47351;53.326;-6.298;2022-11-25T02:35:33;99835.60;;;6.67;83.64
61488;BME280;47351;53.326;-6.298;2022-11-25T02:38:32;99835.63;;;6.67;83.48
61488;BME280;47351;53.326;-6.298;2022-11-25T02:41:28;99841.26;;;6.64;83.29
61488;BME280;47351;53.326;-6.298;2022-11-25T02:44:25;99848.94;;;6.60;83.42
61488;BME280;47351;53.326;-6.298;2022-11-25T02:47:18;99860.47;;;6.56;83.54
61488;BME280;47351;53.326;-6.298;2022-11-25T02:50:11;99864.55;;;6.54;83.67
61488;BME280;47351;53.326;-6.298;2022-11-25T02:53:05;99866.77;;;6.53;83.72
61488;BME280;47351;53.326;-6.298;2022-11-25T02:55:59;99876.55;;;6.53;83.71
61488;BME280;47351;53.326;-6.298;2022-11-25T02:58:52;99878.30;;;6.57;83.70
61488;BME280;47351;53.326;-6.298;2022-11-25T03:01:47;99877.33;;;6.61;83.50
61488;BME280;47351;53.326;-6.298;2022-11-25T03:04:39;99880.25;;;6.64;83.37
61488;BME280;47351;53.326;-6.298;2022-11-25T03:07:31;99882.98;;;6.65;83.13
61488;BME280;47351;53.326;-6.298;2022-11-25T03:10:24;99892.95;;;6.63;83.02
61488;BME280;47351;53.326;-6.298;2022-11-25T03:13:16;99906.05;;;6.59;82.93
61488;BME280;47351;53.326;-6.298;2022-11-25T03:16:09;99912.48;;;6.55;83.01
61488;BME280;47351;53.326;-6.298;2022-11-25T03:19:02;99910.29;;;6.50;83.16
61488;BME280;47351;53.326;-6.298;2022-11-25T03:21:54;99917.20;;;6.47;83.27
61488;BME280;47351;53.326;-6.298;2022-11-25T03:24:46;99930.61;;;6.44;83.41
61488;BME280;47351;53.326;-6.298;2022-11-25T03:27:40;99933.34;;;6.41;83.58
61488;BME280;47351;53.326;-6.298;2022-11-25T03:30:33;99943.11;;;6.39;83.71
61488;BME280;47351;53.326;-6.298;2022-11-25T03:33:26;99951.29;;;6.37;83.84
61488;BME280;47351;53.326;-6.298;2022-11-25T03:36:19;99949.61;;;6.36;83.92
61488;BME280;47351;53.326;-6.298;2022-11-25T03:39:11;99956.06;;;6.36;83.88
61488;BME280;47351;53.326;-6.298;2022-11-25T03:42:04;99965.26;;;6.34;83.91
61488;BME280;47351;53.326;-6.298;2022-11-25T03:44:56;99978.36;;;6.32;84.04
61488;BME280;47351;53.326;-6.298;2022-11-25T03:47:49;99987.77;;;6.32;84.13
61488;BME280;47351;53.326;-6.298;2022-11-25T03:50:43;99989.36;;;6.30;84.16
61488;BME280;47351;53.326;-6.298;2022-11-25T03:53:35;99996.03;;;6.29;84.17
61488;BME280;47351;53.326;-6.298;2022-11-25T03:56:28;99995.52;;;6.29;84.18
61488;BME280;47351;53.326;-6.298;2022-11-25T03:59:20;99998.20;;;6.27;84.29
61488;BME280;47351;53.326;-6.298;2022-11-25T04:02:13;100005.56;;;6.26;84.34
61488;BME280;47351;53.326;-6.298;2022-11-25T04:05:06;100014.31;;;6.27;84.42
61488;BME280;47351;53.326;-6.298;2022-11-25T04:07:59;100020.77;;;6.28;84.44
61488;BME280;47351;53.326;-6.298;2022-11-25T04:10:53;100028.02;;;6.29;84.38
61488;BME280;47351;53.326;-6.298;2022-11-25T04:13:47;100038.04;;;6.27;84.37
61488;BME280;47351;53.326;-6.298;2022-11-25T04:16:40;100044.04;;;6.25;84.27
61488;BME280;47351;53.326;-6.298;2022-11-25T04:19:33;100049.52;;;6.24;84.24
61488;BME280;47351;53.326;-6.298;2022-11-25T04:22:25;100053.95;;;6.22;84.10
61488;BME280;47351;53.326;-6.298;2022-11-25T04:25:18;100059.92;;;6.19;84.18
61488;BME280;47351;53.326;-6.298;2022-11-25T04:28:11;100066.54;;;6.16;84.21
61488;BME280;47351;53.326;-6.298;2022-11-25T04:31:08;100061.02;;;6.13;84.16
61488;BME280;47351;53.326;-6.298;2022-11-25T04:34:02;100066.50;;;6.11;84.17
61488;BME280;47351;53.326;-6.298;2022-11-25T04:36:55;100075.89;;;6.10;84.36
61488;BME280;47351;53.326;-6.298;2022-11-25T04:39:48;100083.06;;;6.09;84.50
61488;BME280;47351;53.326;-6.298;2022-11-25T04:42:41;100094.20;;;6.09;84.67
61488;BME280;47351;53.326;-6.298;2022-11-25T04:45:36;100097.98;;;6.08;84.71
61488;BME280;47351;53.326;-6.298;2022-11-25T04:48:48;100103.61;;;6.07;84.90
61488;BME280;47351;53.326;-6.298;2022-11-25T04:51:41;100107.02;;;6.08;84.91
61488;BME280;47351;53.326;-6.298;2022-11-25T04:54:34;100114.71;;;6.09;84.71
61488;BME280;47351;53.326;-6.298;2022-11-25T04:57:26;100119.02;;;6.09;84.60
61488;BME280;47351;53.326;-6.298;2022-11-25T05:00:21;100123.71;;;6.08;84.47
61488;BME280;47351;53.326;-6.298;2022-11-25T05:03:13;100126.66;;;6.06;84.48
61488;BME280;47351;53.326;-6.298;2022-11-25T05:06:08;100127.32;;;6.07;84.33
61488;BME280;47351;53.326;-6.298;2022-11-25T05:09:00;100136.39;;;6.09;84.11
61488;BME280;47351;53.326;-6.298;2022-11-25T05:11:55;100139.70;;;6.09;83.88
61488;BME280;47351;53.326;-6.298;2022-11-25T05:14:48;100136.98;;;6.10;83.69
61488;BME280;47351;53.326;-6.298;2022-11-25T05:17:41;100140.41;;;6.09;83.55
61488;BME280;47351;53.326;-6.298;2022-11-25T05:20:34;100140.19;;;6.08;83.56
61488;BME280;47351;53.326;-6.298;2022-11-25T05:23:26;100146.52;;;6.07;83.55
61488;BME280;47351;53.326;-6.298;2022-11-25T05:26:19;100156.11;;;6.04;83.59
61488;BME280;47351;53.326;-6.298;2022-11-25T05:29:14;100162.98;;;6.02;83.58
61488;BME280;47351;53.326;-6.298;2022-11-25T05:32:07;100172.20;;;6.02;83.58
61488;BME280;47351;53.326;-6.298;2022-11-25T05:34:59;100176.42;;;6.02;83.58
61488;BME280;47351;53.326;-6.298;2022-11-25T05:37:52;100175.17;;;6.03;83.49
61488;BME280;47351;53.326;-6.298;2022-11-25T05:40:44;100181.58;;;6.02;83.49
61488;BME280;47351;53.326;-6.298;2022-11-25T05:43:38;100201.04;;;6.03;83.53
61488;BME280;47351;53.326;-6.298;2022-11-25T05:46:31;100204.45;;;6.02;83.51
61488;BME280;47351;53.326;-6.298;2022-11-25T05:49:23;100211.27;;;6.01;83.48
61488;BME280;47351;53.326;-6.298;2022-11-25T05:52:16;100214.77;;;6.00;83.48
61488;BME280;47351;53.326;-6.298;2022-11-25T05:55:14;100223.02;;;5.98;83.45
61488;BME280;47351;53.326;-6.298;2022-11-25T05:58:08;100230.70;;;5.98;83.46
61488;BME280;47351;53.326;-6.298;2022-11-25T06:01:06;100236.33;;;5.98;83.40
61488;BME280;47351;53.326;-6.298;2022-11-25T06:04:01;100247.63;;;5.98;83.48
61488;BME280;47351;53.326;-6.298;2022-11-25T06:06:54;100257.60;;;6.00;83.50
61488;BME280;47351;53.326;-6.298;2022-11-25T06:09:46;100264.90;;;6.00;83.35
61488;BME280;47351;53.326;-6.298;2022-11-25T06:12:39;100282.27;;;6.00;83.42
61488;BME280;47351;53.326;-6.298;2022-11-25T06:15:32;100290.88;;;6.00;83.44
61488;BME280;47351;53.326;-6.298;2022-11-25T06:18:24;100295.07;;;6.01;83.37
61488;BME280;47351;53.326;-6.298;2022-11-25T06:21:17;100297.96;;;6.02;83.46
61488;BME280;47351;53.326;-6.298;2022-11-25T06:24:09;100304.48;;;6.03;83.43
61488;BME280;47351;53.326;-6.298;2022-11-25T06:27:03;100319.34;;;6.03;83.43
61488;BME280;47351;53.326;-6.298;2022-11-25T06:29:56;100321.91;;;6.04;83.40
61488;BME280;47351;53.326;-6.298;2022-11-25T06:32:48;100321.38;;;6.04;83.40
61488;BME280;47351;53.326;-6.298;2022-11-25T06:35:45;100324.61;;;6.03;83.52
61488;BME280;47351;53.326;-6.298;2022-11-25T06:38:37;100323.23;;;6.03;83.60
61488;BME280;47351;53.326;-6.298;2022-11-25T06:41:29;100330.30;;;6.05;83.71
61488;BME280;47351;53.326;-6.298;2022-11-25T06:44:22;100323.25;;;6.07;83.65
61488;BME280;47351;53.326;-6.298;2022-11-25T06:47:14;100336.95;;;6.08;83.69
61488;BME280;47351;53.326;-6.298;2022-11-25T06:50:08;100342.61;;;6.09;83.65
61488;BME280;47351;53.326;-6.298;2022-11-25T06:53:02;100343.21;;;6.08;83.76
61488;BME280;47351;53.326;-6.298;2022-11-25T06:56:04;100362.86;;;6.08;83.80
61488;BME280;47351;53.326;-6.298;2022-11-25T06:58:57;100365.80;;;6.09;83.93
61488;BME280;47351;53.326;-6.298;2022-11-25T07:01:49;100372.40;;;6.08;83.94
61488;BME280;47351;53.326;-6.298;2022-11-25T07:04:42;100377.40;;;6.08;84.03
61488;BME280;47351;53.326;-6.298;2022-11-25T07:07:34;100373.75;;;6.09;84.02
61488;BME280;47351;53.326;-6.298;2022-11-25T07:10:27;100374.52;;;6.10;84.10
61488;BME280;47351;53.326;-6.298;2022-11-25T07:13:20;100379.05;;;6.11;84.06
61488;BME280;47351;53.326;-6.298;2022-11-25T07:16:13;100389.25;;;6.12;84.04
61488;BME280;47351;53.326;-6.298;2022-11-25T07:19:09;100389.16;;;6.13;84.10
61488;BME280;47351;53.326;-6.298;2022-11-25T07:22:11;100385.30;;;6.14;84.12
61488;BME280;47351;53.326;-6.298;2022-11-25T07:25:04;100392.90;;;6.15;84.09
61488;BME280;47351;53.326;-6.298;2022-11-25T07:27:57;100396.48;;;6.15;84.03
61488;BME280;47351;53.326;-6.298;2022-11-25T07:30:50;100402.59;;;6.13;84.06
61488;BME280;47351;53.326;-6.298;2022-11-25T07:34:04;100404.42;;;6.13;84.13
61488;BME280;47351;53.326;-6.298;2022-11-25T07:36:57;100405.82;;;6.13;84.20
61488;BME280;47351;53.326;-6.298;2022-11-25T07:39:49;100407.44;;;6.13;84.25
61488;BME280;47351;53.326;-6.298;2022-11-25T07:42:42;100410.88;;;6.12;84.44
61488;BME280;47351;53.326;-6.298;2022-11-25T07:45:34;100418.52;;;6.12;84.64
61488;BME280;47351;53.326;-6.298;2022-11-25T07:48:31;100422.74;;;6.12;84.75
61488;BME280;47351;53.326;-6.298;2022-11-25T07:51:25;100429.34;;;6.15;84.95
61488;BME280;47351;53.326;-6.298;2022-11-25T07:54:18;100436.30;;;6.19;85.01
61488;BME280;47351;53.326;-6.298;2022-11-25T07:57:10;100438.04;;;6.21;85.00
61488;BME280;47351;53.326;-6.298;2022-11-25T08:00:03;100441.30;;;6.22;84.98
61488;BME280;47351;53.326;-6.298;2022-11-25T08:03:01;100453.12;;;6.27;85.12
61488;BME280;47351;53.326;-6.298;2022-11-25T08:05:53;100459.38;;;6.30;85.23
61488;BME280;47351;53.326;-6.298;2022-11-25T08:08:45;100463.98;;;6.34;85.16
61488;BME280;47351;53.326;-6.298;2022-11-25T08:11:38;100466.02;;;6.39;85.04
61488;BME280;47351;53.326;-6.298;2022-11-25T08:14:30;100469.70;;;6.44;85.12
61488;BME280;47351;53.326;-6.298;2022-11-25T08:17:23;100483.47;;;6.52;85.09
61488;BME280;47351;53.326;-6.298;2022-11-25T08:20:15;100486.58;;;6.59;84.78
61488;BME280;47351;53.326;-6.298;2022-11-25T08:23:07;100486.64;;;6.62;84.63
61488;BME280;47351;53.326;-6.298;2022-11-25T08:26:03;100503.43;;;6.67;84.65
61488;BME280;47351;53.326;-6.298;2022-11-25T08:28:56;100503.93;;;6.73;84.60
61488;BME280;47351;53.326;-6.298;2022-11-25T08:31:49;100505.75;;;6.80;84.45
61488;BME280;47351;53.326;-6.298;2022-11-25T08:34:41;100513.70;;;6.89;84.29
61488;BME280;47351;53.326;-6.298;2022-11-25T08:37:34;100516.61;;;6.95;84.14
61488;BME280;47351;53.326;-6.298;2022-11-25T08:40:26;100512.83;;;7.02;83.98
61488;BME280;47351;53.326;-6.298;2022-11-25T08:43:19;100528.48;;;7.09;83.77
61488;BME280;47351;53.326;-6.298;2022-11-25T08:46:21;100531.51;;;7.17;83.53
61488;BME280;47351;53.326;-6.298;2022-11-25T08:49:14;100541.16;;;7.24;83.39
61488;BME280;47351;53.326;-6.298;2022-11-25T08:52:06;100554.96;;;7.30;83.20
61488;BME280;47351;53.326;-6.298;2022-11-25T08:55:00;100558.95;;;7.35;82.98
61488;BME280;47351;53.326;-6.298;2022-11-25T08:57:55;100569.42;;;7.39;82.80
61488;BME280;47351;53.326;-6.298;2022-11-25T09:00:47;100575.65;;;7.43;82.84
61488;BME280;47351;53.326;-6.298;2022-11-25T09:03:45;100577.36;;;7.46;82.73
61488;BME280;47351;53.326;-6.298;2022-11-25T09:06:40;100574.48;;;7.50;82.55
61488;BME280;47351;53.326;-6.298;2022-11-25T09:09:32;100584.50;;;7.53;82.40
61488;BME280;47351;53.326;-6.298;2022-11-25T09:12:25;100588.57;;;7.57;82.49
61488;BME280;47351;53.326;-6.298;2022-11-25T09:15:17;100599.11;;;7.64;82.57
61488;BME280;47351;53.326;-6.298;2022-11-25T09:18:10;100595.31;;;7.71;82.39
61488;BME280;47351;53.326;-6.298;2022-11-25T09:21:08;100604.27;;;7.77;82.15
61488;BME280;47351;53.326;-6.298;2022-11-25T09:24:00;100611.95;;;7.84;82.01
61488;BME280;47351;53.326;-6.298;2022-11-25T09:26:53;100618.40;;;7.92;82.04
61488;BME280;47351;53.326;-6.298;2022-11-25T09:29:45;100618.75;;;7.99;81.82
61488;BME280;47351;53.326;-6.298;2022-11-25T09:32:38;100626.75;;;8.05;81.62
61488;BME280;47351;53.326;-6.298;2022-11-25T09:35:33;100631.88;;;8.09;81.54
61488;BME280;47351;53.326;-6.298;2022-11-25T09:38:25;100639.23;;;8.10;81.42
61488;BME280;47351;53.326;-6.298;2022-11-25T09:41:32;100647.28;;;8.11;81.39
61488;BME280;47351;53.326;-6.298;2022-11-25T09:44:58;100657.64;;;8.13;81.37
61488;BME280;47351;53.326;-6.298;2022-11-25T09:48:31;100668.58;;;8.16;81.38
61488;BME280;47351;53.326;-6.298;2022-11-25T09:51:35;100674.73;;;8.20;81.35
61488;BME280;47351;53.326;-6.298;2022-11-25T09:54:37;100682.32;;;8.24;81.33
61488;BME280;47351;53.326;-6.298;2022-11-25T09:57:40;100697.27;;;8.28;81.26
61488;BME280;47351;53.326;-6.298;2022-11-25T10:00:39;100706.36;;;8.34;81.18
61488;BME280;47351;53.326;-6.298;2022-11-25T10:03:38;100713.48;;;8.38;81.01
61488;BME280;47351;53.326;-6.298;2022-11-25T10:06:47;100715.92;;;8.42;81.07
61488;BME280;47351;53.326;-6.298;2022-11-25T10:09:45;100727.77;;;8.47;81.04
61488;BME280;47351;53.326;-6.298;2022-11-25T10:12:39;100728.76;;;8.51;80.93
61488;BME280;47351;53.326;-6.298;2022-11-25T10:15:38;100742.46;;;8.55;80.80
61488;BME280;47351;53.326;-6.298;2022-11-25T10:18:37;100750.39;;;8.59;80.74
61488;BME280;47351;53.326;-6.298;2022-11-25T10:21:31;100762.33;;;8.65;80.58
61488;BME280;47351;53.326;-6.298;2022-11-25T10:24:23;100769.08;;;8.71;80.64
61488;BME280;47351;53.326;-6.298;2022-11-25T10:27:20;100763.16;;;8.77;80.59
61488;BME280;47351;53.326;-6.298;2022-11-25T10:30:18;100773.59;;;8.83;80.55
61488;BME280;47351;53.326;-6.298;2022-11-25T10:33:15;100778.38;;;8.89;80.12
61488;BME280;47351;53.326;-6.298;2022-11-25T10:36:16;100779.03;;;8.93;80.14
61488;BME280;47351;53.326;-6.298;2022-11-25T10:39:12;100778.71;;;8.97;80.02
61488;BME280;47351;53.326;-6.298;2022-11-25T10:42:09;100782.05;;;9.01;79.88
61488;BME280;47351;53.326;-6.298;2022-11-25T10:45:05;100796.59;;;9.07;79.68
61488;BME280;47351;53.326;-6.298;2022-11-25T10:48:15;100796.25;;;9.15;79.61
61488;BME280;47351;53.326;-6.298;2022-11-25T10:51:11;100809.23;;;9.22;79.27
61488;BME280;47351;53.326;-6.298;2022-11-25T10:54:17;100804.20;;;9.28;79.12
61488;BME280;47351;53.326;-6.298;2022-11-25T10:57:29;100811.57;;;9.35;78.86
61488;BME280;47351;53.326;-6.298;2022-11-25T11:00:31;100811.41;;;9.41;78.48
61488;BME280;47351;53.326;-6.298;2022-11-25T11:03:25;100819.32;;;9.45;78.20
61488;BME280;47351;53.326;-6.298;2022-11-25T11:06:38;100816.04;;;9.49;78.21
61488;BME280;47351;53.326;-6.298;2022-11-25T11:09:37;100825.02;;;9.56;78.11
61488;BME280;47351;53.326;-6.298;2022-11-25T11:12:32;100824.80;;;9.60;77.82
61488;BME280;47351;53.326;-6.298;2022-11-25T11:15:29;100824.45;;;9.64;77.74
61488;BME280;47351;53.326;-6.298;2022-11-25T11:18:29;100833.88;;;9.69;77.71
61488;BME280;47351;53.326;-6.298;2022-11-25T11:21:36;100835.84;;;9.75;77.53
61488;BME280;47351;53.326;-6.298;2022-11-25T11:24:32;100839.28;;;9.80;77.26
61488;BME280;47351;53.326;-6.298;2022-11-25T11:31:14;100834.52;;;10.08;76.56
61488;BME280;47351;53.326;-6.298;2022-11-25T11:34:37;100827.09;;;12.51;71.40
61488;BME280;47351;53.326;-6.298;2022-11-25T11:37:42;100825.11;;;15.51;65.90
61488;BME280;47351;53.326;-6.298;2022-11-25T11:40:39;100823.61;;;17.66;59.34
61488;BME280;47351;53.326;-6.298;2022-11-25T11:43:47;100823.48;;;19.40;55.55
61488;BME280;47351;53.326;-6.298;2022-11-25T11:46:59;100824.38;;;20.72;50.46
61488;BME280;47351;53.326;-6.298;2022-11-25T11:50:21;100825.66;;;21.69;48.75
61488;BME280;47351;53.326;-6.298;2022-11-25T11:53:23;100825.35;;;22.70;46.34
61488;BME280;47351;53.326;-6.298;2022-11-25T11:56:31;100830.88;;;23.40;44.27
61488;BME280;47351;53.326;-6.298;2022-11-25T11:59:46;100840.23;;;23.94;43.03
61488;BME280;47351;53.326;-6.298;2022-11-25T12:02:56;100851.61;;;24.46;40.09
61488;BME280;47351;53.326;-6.298;2022-11-25T12:05:57;100858.36;;;24.53;39.67
61488;BME280;47351;53.326;-6.298;2022-11-25T12:08:56;100853.88;;;24.63;39.01
61488;BME280;47351;53.326;-6.298;2022-11-25T12:11:56;100858.50;;;24.77;38.51
61488;BME280;47351;53.326;-6.298;2022-11-25T12:14:54;100866.16;;;24.77;37.76
61488;BME280;47351;53.326;-6.298;2022-11-25T12:18:03;100872.77;;;24.60;37.18
61488;BME280;47351;53.326;-6.298;2022-11-25T12:21:09;100873.67;;;24.02;37.68
61488;BME280;47351;53.326;-6.298;2022-11-25T12:24:12;100890.63;;;22.42;38.67
61488;BME280;47351;53.326;-6.298;2022-11-25T12:27:12;100903.27;;;20.42;41.04
61488;BME280;47351;53.326;-6.298;2022-11-25T12:30:11;100906.42;;;18.88;43.48
61488;BME280;47351;53.326;-6.298;2022-11-25T12:33:11;100913.21;;;17.87;45.89
61488;BME280;47351;53.326;-6.298;2022-11-25T12:36:08;100918.20;;;17.44;46.54
61488;BME280;47351;53.326;-6.298;2022-11-25T12:39:09;100921.70;;;17.20;47.59
61488;BME280;47351;53.326;-6.298;2022-11-25T12:42:14;100931.30;;;17.14;48.20
61488;BME280;47351;53.326;-6.298;2022-11-25T12:45:11;100936.39;;;16.64;49.01
61488;BME280;47351;53.326;-6.298;2022-11-25T12:48:10;100937.37;;;16.45;49.59
61488;BME280;47351;53.326;-6.298;2022-11-25T12:51:17;100943.97;;;16.64;49.92
61488;BME280;47351;53.326;-6.298;2022-11-25T12:54:22;100948.31;;;16.76;49.97
61488;BME280;47351;53.326;-6.298;2022-11-25T12:57:35;100945.85;;;16.91;50.10
61488;BME280;47351;53.326;-6.298;2022-11-25T13:00:59;100936.41;;;17.17;50.13
61488;BME280;47351;53.326;-6.298;2022-11-25T13:07:33;100953.23;;;17.28;48.51
61488;BME280;47351;53.326;-6.298;2022-11-25T13:10:44;100961.77;;;16.82;49.00
61488;BME280;47351;53.326;-6.298;2022-11-25T13:13:49;100968.39;;;16.00;50.06
61488;BME280;47351;53.326;-6.298;2022-11-25T13:16:48;100975.34;;;15.43;51.09
61488;BME280;47351;53.326;-6.298;2022-11-25T13:19:42;100981.85;;;14.56;52.73
61488;BME280;47351;53.326;-6.298;2022-11-25T13:22:34;100981.88;;;13.81;54.69
61488;BME280;47351;53.326;-6.298;2022-11-25T13:25:26;100988.29;;;13.29;55.88
61488;BME280;47351;53.326;-6.298;2022-11-25T13:28:31;100992.55;;;12.89;57.07
61488;BME280;47351;53.326;-6.298;2022-11-25T13:31:28;101001.17;;;12.49;58.26
61488;BME280;47351;53.326;-6.298;2022-11-25T13:34:27;101009.52;;;12.11;59.52
61488;BME280;47351;53.326;-6.298;2022-11-25T13:37:36;101008.48;;;11.83;60.57
61488;BME280;47351;53.326;-6.298;2022-11-25T13:40:37;101016.23;;;11.58;61.48
61488;BME280;47351;53.326;-6.298;2022-11-25T13:43:29;101022.23;;;11.43;62.30
61488;BME280;47351;53.326;-6.298;2022-11-25T13:46:32;101034.20;;;11.38;63.10
61488;BME280;47351;53.326;-6.298;2022-11-25T13:49:29;101041.42;;;11.34;63.64
61488;BME280;47351;53.326;-6.298;2022-11-25T13:52:42;101052.36;;;11.30;64.24
61488;BME280;47351;53.326;-6.298;2022-11-25T13:55:39;101048.64;;;11.17;64.78
61488;BME280;47351;53.326;-6.298;2022-11-25T13:58:32;101048.60;;;11.08;65.41
61488;BME280;47351;53.326;-6.298;2022-11-25T14:01:25;101050.38;;;11.01;65.93
61488;BME280;47351;53.326;-6.298;2022-11-25T14:04:31;101048.48;;;10.95;66.40
61488;BME280;47351;53.326;-6.298;2022-11-25T14:07:32;101055.18;;;10.90;67.00
61488;BME280;47351;53.326;-6.298;2022-11-25T14:10:43;101051.89;;;10.89;67.44
61488;BME280;47351;53.326;-6.298;2022-11-25T14:14:01;101050.63;;;10.86;67.93
61488;BME280;47351;53.326;-6.298;2022-11-25T14:17:12;101052.45;;;10.88;68.37
61488;BME280;47351;53.326;-6.298;2022-11-25T14:20:26;101051.45;;;10.89;68.51
61488;BME280;47351;53.326;-6.298;2022-11-25T14:23:51;101049.88;;;10.92;68.63
61488;BME280;47351;53.326;-6.298;2022-11-25T14:26:47;101048.83;;;10.97;68.86
61488;BME280;47351;53.326;-6.298;2022-11-25T14:29:46;101052.13;;;10.98;68.76
61488;BME280;47351;53.326;-6.298;2022-11-25T14:32:46;101053.78;;;11.00;68.93
61488;BME280;47351;53.326;-6.298;2022-11-25T14:35:42;101056.23;;;11.00;68.76
61488;BME280;47351;53.326;-6.298;2022-11-25T14:38:44;101056.89;;;10.99;68.81
61488;BME280;47351;53.326;-6.298;2022-11-25T14:41:40;101058.25;;;10.94;68.73
61488;BME280;47351;53.326;-6.298;2022-11-25T14:44:37;101062.56;;;10.88;68.73
61488;BME280;47351;53.326;-6.298;2022-11-25T14:47:32;101071.33;;;10.83;68.74
61488;BME280;47351;53.326;-6.298;2022-11-25T14:50:29;101077.65;;;10.75;68.68
61488;BME280;47351;53.326;-6.298;2022-11-25T14:53:25;101077.57;;;10.64;68.43
61488;BME280;47351;53.326;-6.298;2022-11-25T14:56:28;101081.88;;;10.55;68.38
61488;BME280;47351;53.326;-6.298;2022-11-25T14:59:21;101084.04;;;10.46;68.51
61488;BME280;47351;53.326;-6.298;2022-11-25T15:02:25;101080.59;;;10.37;68.36
61488;BME280;47351;53.326;-6.298;2022-11-25T15:05:21;101084.48;;;10.30;68.40
61488;BME280;47351;53.326;-6.298;2022-11-25T15:08:16;101088.61;;;10.24;68.52
61488;BME280;47351;53.326;-6.298;2022-11-25T15:11:14;101094.26;;;10.19;68.46
61488;BME280;47351;53.326;-6.298;2022-11-25T15:14:17;101098.38;;;10.15;68.48
61488;BME280;47351;53.326;-6.298;2022-11-25T15:17:23;101109.82;;;10.11;68.54
61488;BME280;47351;53.326;-6.298;2022-11-25T15:20:17;101117.67;;;10.05;68.73
61488;BME280;47351;53.326;-6.298;2022-11-25T15:23:13;101123.65;;;10.00;69.08
61488;BME280;47351;53.326;-6.298;2022-11-25T15:26:14;101127.44;;;9.94;69.17
61488;BME280;47351;53.326;-6.298;2022-11-25T15:29:11;101133.05;;;9.88;69.38
61488;BME280;47351;53.326;-6.298;2022-11-25T15:32:03;101135.11;;;9.83;69.46